Time;durP1;ratioP1;P1;durP2;ratioP2;P2;SDS_P1;SDS_P2;PMS_P1;PMS_P2;Temp;Humidity;BMP_temperature;BMP_pressure;BME280_temperature;BME280_humidity;BME280_pressure;Samples;Min_cycle;Max_cycle;Signal;HPM_P1;HPM_P2
2022/03/24 00:02:10;;;;;;;24.93;11.27;;;;;;;9.78;31.30;101397.59;5438464;32;34288;-87
2022/03/24 00:05:13;;;;;;;31.83;9.77;;;;;;;9.81;31.42;101391.44;5410206;32;33802;-87
2022/03/24 00:08:15;;;;;;;29.60;11.37;;;;;;;9.43;32.14;101400.91;5432681;32;33830;-67
2022/03/24 00:11:17;;;;;;;23.83;10.80;;;;;;;9.83;31.59;101394.88;5414941;32;34698;-87
2022/03/24 00:14:20;;;;;;;22.93;11.47;;;;;;;9.60;32.00;101390.09;5410830;32;34073;-68
2022/03/24 00:17:22;;;;;;;25.63;10.60;;;;;;;9.89;31.53;101379.00;5440412;32;34127;-87
2022/03/24 00:20:25;;;;;;;23.23;11.40;;;;;;;9.46;32.24;101378.06;5411581;32;36239;-87
2022/03/24 00:23:28;;;;;;;24.73;10.77;;;;;;;9.22;32.73;101366.28;5433135;32;44514;-68
2022/03/24 00:26:30;;;;;;;25.63;10.70;;;;;;;9.60;32.21;101362.09;5422532;32;33736;-86
2022/03/24 00:29:32;;;;;;;33.70;12.17;;;;;;;9.50;32.51;101358.75;5431738;32;34148;-87
2022/03/24 00:32:38;;;;;;;25.20;10.93;;;;;;;9.34;32.80;101351.19;5425237;32;34792;-77
2022/03/24 00:35:40;;;;;;;25.53;10.87;;;;;;;9.64;32.47;101350.62;5425961;32;35089;-86
2022/03/24 00:38:42;;;;;;;23.83;10.73;;;;;;;10.16;31.59;101356.53;5435271;32;33920;-87
2022/03/24 00:41:44;;;;;;;21.43;11.63;;;;;;;9.60;32.48;101351.59;5397646;32;33856;-88
2022/03/24 00:44:46;;;;;;;25.27;11.10;;;;;;;9.58;32.48;101349.88;5414335;32;34057;-68
2022/03/24 00:47:49;;;;;;;31.33;11.30;;;;;;;9.29;33.19;101351.31;5423742;32;35791;-86
2022/03/24 00:50:51;;;;;;;22.13;10.43;;;;;;;8.98;33.82;101350.12;5430494;32;34280;-68
2022/03/24 00:53:54;;;;;;;21.17;10.70;;;;;;;9.69;32.46;101345.28;5416246;32;33970;-87
2022/03/24 00:56:56;;;;;;;24.33;10.70;;;;;;;9.65;32.65;101343.59;5422973;32;35426;-67
2022/03/24 00:59:58;;;;;;;20.73;10.13;;;;;;;9.75;32.43;101342.53;5437532;32;44423;-87
2022/03/24 01:03:00;;;;;;;33.40;10.93;;;;;;;9.42;33.20;101341.44;5402646;32;34221;-88
2022/03/24 01:06:03;;;;;;;27.13;10.50;;;;;;;8.89;34.11;101335.41;5434568;32;34135;-87
2022/03/24 01:09:05;;;;;;;26.70;11.10;;;;;;;10.24;31.68;101334.50;5421303;32;38286;-86
2022/03/24 01:12:08;;;;;;;22.87;10.87;;;;;;;8.94;33.95;101323.06;5426885;32;34158;-67
2022/03/24 01:15:14;;;;;;;24.70;11.02;;;;;;;8.47;34.95;101332.59;5440411;32;34806;-67
2022/03/24 01:18:19;;;;;;;29.30;12.10;;;;;;;9.32;33.46;101322.38;5405987;32;33831;-87
2022/03/24 01:21:21;;;;;;;20.77;10.50;;;;;;;8.67;34.75;101320.03;5423824;32;35058;-67
2022/03/24 01:24:23;;;;;;;24.30;11.50;;;;;;;9.42;33.46;101316.06;5420766;32;35581;-68
2022/03/24 01:27:28;;;;;;;25.33;10.93;;;;;;;8.74;34.73;101314.69;5434644;32;35543;-68
2022/03/24 01:30:30;;;;;;;24.70;11.90;;;;;;;9.12;34.14;101311.41;5422480;32;45036;-86
2022/03/24 01:33:32;;;;;;;27.37;12.63;;;;;;;9.56;33.68;101313.16;5435810;32;34006;-68
2022/03/24 01:36:35;;;;;;;30.67;13.00;;;;;;;10.18;32.55;101303.09;5433031;32;33682;-77
2022/03/24 01:39:38;;;;;;;24.60;12.32;;;;;;;9.82;32.99;101303.88;5436344;32;33532;-68
2022/03/24 01:42:41;;;;;;;26.48;14.23;;;;;;;8.73;35.27;101310.34;5423071;32;35178;-87
2022/03/24 01:45:43;;;;;;;30.15;12.52;;;;;;;9.03;35.01;101301.94;5397951;32;35790;-68
2022/03/24 01:48:45;;;;;;;23.87;12.93;;;;;;;9.01;34.96;101300.22;5435149;32;34036;-67
2022/03/24 01:51:48;;;;;;;32.00;14.07;;;;;;;8.97;35.20;101293.34;5423839;32;35124;-68
2022/03/24 01:54:53;;;;;;;35.45;14.45;;;;;;;9.01;35.13;101290.59;5408141;32;35295;-68
2022/03/24 01:57:55;;;;;;;36.47;13.57;;;;;;;8.17;36.90;101298.97;5433444;32;36414;-68
2022/03/24 02:01:29;;;;;;;32.90;13.53;;;;;;;8.00;37.49;101292.22;5420923;32;46175;-68
2022/03/24 02:04:35;;;;;;;;;;;;;;;7.67;38.06;101284.84;5433017;32;44573;-76
2022/03/24 02:07:37;;;;;;;31.17;14.50;;;;;;;7.75;37.85;101283.84;5433930;32;35178;-86
2022/03/24 02:10:40;;;;;;;34.87;13.60;;;;;;;8.00;37.41;101280.87;5412249;32;34012;-68
2022/03/24 02:13:42;;;;;;;39.57;14.07;;;;;;;8.43;36.88;101285.50;5393025;32;35288;-77
2022/03/24 02:16:47;;;;;;;29.67;13.97;;;;;;;8.60;36.29;101283.47;5427886;32;33964;-85
2022/03/24 02:19:50;;;;;;;30.43;14.50;;;;;;;8.00;37.64;101293.97;5429412;32;34661;-85
2022/03/24 02:22:53;;;;;;;30.80;14.77;;;;;;;8.33;36.78;101292.62;5432627;32;34020;-87
2022/03/24 02:25:55;;;;;;;33.70;14.30;;;;;;;8.48;36.33;101289.78;5422992;32;35543;-86
2022/03/24 02:28:58;;;;;;;29.52;14.80;;;;;;;8.65;36.30;101292.13;5423352;32;44320;-67
2022/03/24 02:32:01;;;;;;;34.57;14.20;;;;;;;8.99;35.39;101291.53;5420835;32;35699;-86
2022/03/24 02:35:04;;;;;;;33.10;14.00;;;;;;;9.09;35.11;101283.47;5424938;32;35358;-68
2022/03/24 02:38:06;;;;;;;35.43;14.90;;;;;;;9.36;34.58;101286.47;5419360;32;37057;-76
2022/03/24 02:41:08;;;;;;;28.80;14.10;;;;;;;8.46;36.55;101293.31;5435532;32;35357;-76
2022/03/24 02:44:10;;;;;;;26.53;13.47;;;;;;;7.80;37.95;101291.63;5398743;32;34353;-85
2022/03/24 02:47:13;;;;;;;34.53;15.03;;;;;;;8.19;37.53;101297.19;5435017;32;33815;-67
2022/03/24 02:50:15;;;;;;;34.40;14.90;;;;;;;8.13;37.00;101280.69;5415024;32;34030;-85
2022/03/24 02:53:19;;;;;;;27.07;13.40;;;;;;;7.60;38.27;101284.91;5393274;32;34298;-85
2022/03/24 02:56:21;;;;;;;30.62;13.88;;;;;;;7.78;37.78;101289.00;5438608;32;33940;-84
2022/03/24 02:59:24;;;;;;;32.13;14.90;;;;;;;7.45;38.90;101292.94;5410286;32;34067;-67
2022/03/24 03:02:26;;;;;;;31.03;15.50;;;;;;;7.05;40.01;101292.50;5445621;32;34051;-87
2022/03/24 03:05:29;;;;;;;30.77;15.57;;;;;;;7.14;39.76;101291.53;5410111;32;44469;-87
2022/03/24 03:08:31;;;;;;;35.33;14.70;;;;;;;7.06;40.08;101292.47;5433866;32;35301;-68
2022/03/24 03:11:34;;;;;;;33.40;14.60;;;;;;;7.58;39.13;101281.44;5426108;32;34178;-67
2022/03/24 03:14:36;;;;;;;30.17;14.33;;;;;;;7.25;39.91;101292.28;5432460;32;37170;-86
2022/03/24 03:17:38;;;;;;;32.63;15.13;;;;;;;8.46;37.31;101282.84;5422980;32;35550;-86
2022/03/24 03:20:40;;;;;;;32.63;14.70;;;;;;;8.31;37.25;101283.94;5425366;32;34108;-87
2022/03/24 03:23:44;;;;;;;29.50;14.03;;;;;;;7.44;39.01;101275.50;5442079;32;35260;-67
2022/03/24 03:26:46;;;;;;;35.45;15.63;;;;;;;7.18;39.66;101275.81;5421502;32;34031;-86
2022/03/24 03:29:49;;;;;;;30.27;14.40;;;;;;;7.04;40.20;101275.09;5405624;32;35031;-68
2022/03/24 03:32:51;;;;;;;36.73;14.80;;;;;;;7.58;39.22;101257.88;5412808;32;35382;-86
2022/03/24 03:35:53;;;;;;;31.20;14.53;;;;;;;7.43;39.38;101267.69;5410190;32;34662;-87
2022/03/24 03:38:55;;;;;;;30.13;14.70;;;;;;;7.70;38.86;101272.56;5425786;32;35724;-67
2022/03/24 03:41:58;;;;;;;31.33;14.70;;;;;;;7.11;40.04;101268.91;5408927;32;44588;-87
2022/03/24 03:45:00;;;;;;;30.93;14.27;;;;;;;7.32;39.78;101263.44;5416385;32;35392;-67
2022/03/24 03:48:03;;;;;;;31.77;15.53;;;;;;;6.75;41.06;101262.31;5423493;32;34028;-87
2022/03/24 03:51:06;;;;;;;34.35;14.57;;;;;;;7.14;40.20;101255.78;5431982;32;34245;-86
2022/03/24 03:54:09;;;;;;;35.25;16.00;;;;;;;6.99;40.81;101263.81;5445763;32;33913;-68
2022/03/24 03:57:11;;;;;;;38.17;15.70;;;;;;;6.82;41.23;101263.09;5424818;32;34030;-67
2022/03/24 04:03:37;;;;;;;33.93;16.03;;;;;;;6.55;42.04;101259.00;5406714;32;43196;-88
2022/03/24 04:06:40;;;;;;;33.13;14.87;;;;;;;6.87;41.44;101258.72;5434114;32;35243;-86
2022/03/24 04:09:42;;;;;;;35.03;16.50;;;;;;;7.23;40.65;101260.06;5412699;32;35086;-69
2022/03/24 04:12:44;;;;;;;47.70;16.33;;;;;;;6.72;41.97;101272.78;5421888;32;34682;-68
2022/03/24 04:15:47;;;;;;;37.90;16.40;;;;;;;6.36;42.85;101264.37;5432029;32;35405;-68
2022/03/24 04:18:50;;;;;;;35.50;15.18;;;;;;;6.36;43.10;101261.75;5408636;32;35555;-68
2022/03/24 04:21:53;;;;;;;32.70;15.50;;;;;;;6.94;41.87;101261.25;5422071;32;34010;-88
2022/03/24 04:24:55;;;;;;;48.47;17.00;;;;;;;7.10;41.56;101267.19;5410712;32;35450;-88
2022/03/24 04:27:57;;;;;;;47.43;16.90;;;;;;;6.87;41.78;101253.47;5423115;32;37571;-69
2022/03/24 04:31:00;;;;;;;33.37;15.80;;;;;;;6.53;42.49;101258.16;5410828;32;34065;-88
2022/03/24 04:34:02;;;;;;;33.70;15.03;;;;;;;6.59;42.38;101242.44;5412173;32;34195;-68
2022/03/24 04:37:05;;;;;;;38.43;15.83;;;;;;;7.52;40.52;101244.00;5420244;32;34066;-68
2022/03/24 04:40:08;;;;;;;36.67;17.10;;;;;;;6.94;41.95;101244.69;5420763;32;34193;-67
2022/03/24 04:43:10;;;;;;;40.03;16.73;;;;;;;6.76;42.30;101238.78;5407691;32;33883;-86
2022/03/24 04:46:14;;;;;;;45.47;17.20;;;;;;;6.55;42.61;101244.19;5401552;32;34245;-68
2022/03/24 04:49:17;;;;;;;45.42;18.10;;;;;;;6.67;42.24;101245.84;5433184;32;35115;-87
2022/03/24 04:52:20;;;;;;;48.35;18.87;;;;;;;6.17;43.41;101250.59;5413518;32;35658;-67
2022/03/24 04:55:23;;;;;;;37.90;20.10;;;;;;;6.21;43.38;101249.72;5422711;32;35473;-89
2022/03/24 04:58:25;;;;;;;47.90;19.30;;;;;;;6.42;42.40;101253.87;5434526;32;33746;-86
2022/03/24 05:01:27;;;;;;;41.30;18.87;;;;;;;6.30;42.90;101251.38;5407365;32;44771;-87
2022/03/24 05:04:30;;;;;;;45.57;18.97;;;;;;;6.09;43.40;101249.78;5424728;32;34460;-88
2022/03/24 05:07:36;;;;;;;51.77;19.93;;;;;;;6.39;42.48;101246.09;5396764;32;33588;-87
2022/03/24 05:10:38;;;;;;;45.85;19.30;;;;;;;6.48;42.62;101248.62;5429355;32;34049;-88
2022/03/24 05:13:41;;;;;;;53.60;19.67;;;;;;;6.36;42.89;101251.31;5416263;32;35714;-88
2022/03/24 05:16:43;;;;;;;46.57;20.17;;;;;;;6.84;41.99;101256.12;5416626;32;33819;-75
2022/03/24 05:19:48;;;;;;;49.17;20.40;;;;;;;7.59;40.22;101250.91;5435672;32;34804;-67
2022/03/24 05:22:50;;;;;;;40.37;19.37;;;;;;;7.35;40.27;101236.41;5428187;32;35445;-87
2022/03/24 05:25:53;;;;;;;38.70;19.57;;;;;;;7.70;39.66;101241.16;5425000;32;33889;-68
2022/03/24 05:28:55;;;;;;;42.50;20.13;;;;;;;7.78;39.14;101243.66;5408735;32;33615;-68
2022/03/24 05:31:58;;;;;;;36.37;19.57;;;;;;;7.62;39.98;101244.78;5411822;32;44165;-86
2022/03/24 05:35:00;;;;;;;49.77;19.80;;;;;;;8.33;38.02;101235.84;5432520;32;35037;-87
2022/03/24 05:38:03;;;;;;;48.83;21.93;;;;;;;10.19;34.04;101220.75;5421225;32;34534;-68
2022/03/24 05:41:05;;;;;;;52.57;21.57;;;;;;;9.73;35.15;101231.47;5418758;32;35465;-87
2022/03/24 05:44:08;;;;;;;46.00;20.67;;;;;;;10.47;33.89;101227.97;5398991;32;34160;-88
2022/03/24 05:47:20;;;;;;;50.13;21.07;;;;;;;11.33;32.28;101219.50;5434336;32;35182;-68
2022/03/24 05:50:24;;;;;;;49.23;22.50;;;;;;;11.90;31.63;101215.16;5423282;32;34006;-88
2022/03/24 05:53:31;;;;;;;52.67;22.77;;;;;;;12.59;30.05;101215.53;5418422;32;43138;-68
2022/03/24 05:56:33;;;;;;;53.67;23.03;;;;;;;11.90;31.28;101215.16;5419993;32;35523;-88
2022/03/24 05:59:35;;;;;;;53.00;24.57;;;;;;;12.22;30.88;101222.03;5419503;32;35752;-77
2022/03/24 06:02:37;;;;;;;53.78;28.58;;;;;;;12.08;31.19;101213.72;5430017;32;35876;-69
2022/03/24 06:05:40;;;;;;;56.65;24.27;;;;;;;12.61;30.53;101214.56;5425599;32;35455;-87
2022/03/24 06:08:43;;;;;;;50.17;25.45;;;;;;;12.09;31.59;101220.72;5434345;32;35068;-67
2022/03/24 06:11:45;;;;;;;54.95;23.05;;;;;;;12.93;30.32;101213.44;5424850;32;34928;-68
2022/03/24 06:14:47;;;;;;;60.75;22.98;;;;;;;13.84;28.46;101210.94;5424719;32;33801;-89
2022/03/24 06:17:50;;;;;;;43.08;23.90;;;;;;;13.96;28.08;101202.50;5443463;32;36205;-88
2022/03/24 06:20:53;;;;;;;34.42;16.52;;;;;;;14.35;27.30;101199.16;5397376;32;35687;-67
2022/03/24 06:23:55;;;;;;;29.20;13.77;;;;;;;14.05;27.32;101199.53;5437791;32;35346;-91
2022/03/24 06:26:58;;;;;;;27.73;14.05;;;;;;;14.81;25.54;101195.47;5420415;32;44584;-88
2022/03/24 06:30:03;;;;;;;25.25;13.60;;;;;;;14.64;25.67;101197.97;5440960;32;34200;-76
2022/03/24 06:33:05;;;;;;;31.90;14.10;;;;;;;14.90;24.94;101199.47;5425448;32;35172;-70
2022/03/24 06:36:08;;;;;;;33.17;16.12;;;;;;;14.94;24.92;101195.78;5415336;32;35080;-70
2022/03/24 06:39:11;;;;;;;39.88;17.65;;;;;;;15.01;24.88;101193.72;5428079;32;35770;-74
2022/03/24 06:42:13;;;;;;;50.78;22.52;;;;;;;15.48;24.30;101202.13;5405242;32;33775;-71
2022/03/24 06:45:15;;;;;;;34.58;18.55;;;;;;;15.30;25.57;101197.69;5409759;32;34601;-71
2022/03/24 06:48:27;;;;;;;44.50;18.60;;;;;;;15.44;24.51;101195.25;5720079;26;34523;-95
2022/03/24 06:52:10;;;;;;;45.80;17.83;;;;;;;15.55;24.69;101185.03;5388457;32;34959;-96
2022/03/24 06:55:41;;;;;;;31.05;17.83;;;;;;;16.01;23.55;101189.94;5386552;32;35167;-95
2022/03/24 06:58:56;;;;;;;32.70;17.08;;;;;;;16.84;22.53;101197.25;5394925;32;34941;-95
2022/03/24 07:02:19;;;;;;;34.80;17.08;;;;;;;16.33;22.82;101194.50;5408664;32;43236;-96
2022/03/24 07:05:48;;;;;;;35.70;16.80;;;;;;;16.94;22.01;101194.06;5418073;32;43808;-95
2022/03/24 07:08:58;;;;;;;33.83;15.98;;;;;;;16.45;22.52;101169.16;5361290;32;35334;-72
2022/03/24 07:12:00;;;;;;;30.00;16.05;;;;;;;18.11;20.77;101183.19;5373826;32;34813;-74
2022/03/24 07:15:03;;;;;;;30.95;16.37;;;;;;;17.04;21.57;101179.31;5358861;32;34017;-72
2022/03/24 07:18:05;;;;;;;32.08;16.45;;;;;;;17.26;21.01;101179.03;5349850;32;43255;-68
2022/03/24 07:21:07;;;;;;;33.00;17.42;;;;;;;18.16;20.33;101172.25;5354292;32;34726;-69
2022/03/24 07:24:10;;;;;;;35.33;17.00;;;;;;;18.25;19.71;101169.91;5380337;32;33911;-71
2022/03/24 07:27:14;;;;;;;38.38;17.42;;;;;;;18.32;19.22;101173.94;5379348;32;35151;-68
2022/03/24 07:30:17;;;;;;;32.50;15.98;;;;;;;19.15;18.42;101167.12;5365305;32;35473;-75
2022/03/24 07:33:20;;;;;;;33.15;17.30;;;;;;;19.66;17.60;101163.94;5389649;32;35802;-67
2022/03/24 07:36:23;;;;;;;33.33;15.95;;;;;;;20.47;16.63;101159.41;5360626;32;34032;-74
2022/03/24 07:39:25;;;;;;;44.83;16.70;;;;;;;20.06;17.01;101162.19;5370059;32;35645;-73
2022/03/24 07:42:28;;;;;;;36.22;16.00;;;;;;;19.54;17.76;101159.37;5354344;32;37287;-66
2022/03/24 07:45:37;;;;;;;42.05;18.20;;;;;;;22.56;14.93;101148.69;5350644;32;35519;-77
2022/03/24 07:48:40;;;;;;;46.37;17.27;;;;;;;22.73;15.02;101144.69;5368431;32;45093;-79
2022/03/24 07:51:42;;;;;;;;;;;;;;;22.76;14.79;101146.28;5364098;32;33843;-67
2022/03/24 07:54:56;;;;;;;30.02;15.93;;;;;;;22.36;14.92;101152.06;5387895;32;35381;-70
2022/03/24 07:57:58;;;;;;;38.63;18.02;;;;;;;20.64;16.73;101160.09;5364224;32;34511;-68
2022/03/24 08:01:01;;;;;;;31.33;15.70;;;;;;;23.42;14.35;101141.91;5374257;32;34448;-71
2022/03/24 08:04:06;;;;;;;27.52;16.45;;;;;;;24.05;13.31;101149.22;5356631;32;46092;-71
2022/03/24 08:07:08;;;;;;;26.55;15.77;;;;;;;23.40;13.93;101146.56;5356884;32;33971;-70
2022/03/24 08:10:11;;;;;;;;;;;;;;;23.62;13.38;101145.69;5372971;32;34446;-71
2022/03/24 08:13:15;;;;;;;31.58;17.77;;;;;;;21.62;15.20;101156.66;5364244;32;35515;-75
2022/03/24 08:16:17;;;;;;;40.50;18.12;;;;;;;21.73;15.15;101142.50;5378500;32;34120;-69
2022/03/24 08:19:20;;;;;;;47.55;17.77;;;;;;;21.33;15.30;101148.94;5371920;32;35325;-72
2022/03/24 08:22:22;;;;;;;;;;;;;;;22.98;14.16;101147.19;5365756;32;34001;-72
2022/03/24 08:25:24;;;;;;;42.75;17.52;;;;;;;24.16;13.10;101137.59;5357898;32;35390;-70
2022/03/24 08:28:26;;;;;;;50.45;18.62;;;;;;;23.30;13.45;101132.19;5356538;32;35254;-72
2022/03/24 08:31:29;;;;;;;31.70;16.27;;;;;;;21.78;14.72;101146.56;5373432;32;34349;-69
2022/03/24 08:34:31;;;;;;;32.03;16.52;;;;;;;22.04;14.25;101139.25;5348784;32;34185;-72
2022/03/24 08:37:34;;;;;;;27.55;14.90;;;;;;;20.71;15.44;101140.00;5387624;32;46668;-68
2022/03/24 08:40:38;;;;;;;36.45;14.18;;;;;;;21.71;14.13;101141.78;5343172;32;33895;-69
2022/03/24 08:43:40;;;;;;;24.70;14.05;;;;;;;21.77;13.82;101135.97;5379888;32;33984;-76
2022/03/24 08:46:43;;;;;;;31.83;13.07;;;;;;;22.53;13.21;101134.69;5370272;32;35163;-71
2022/03/24 08:49:45;;;;;;;26.80;12.37;;;;;;;22.64;12.91;101132.88;5357190;32;34379;-72
2022/03/24 08:52:48;;;;;;;19.10;10.23;;;;;;;24.59;11.13;101121.34;5358993;32;35305;-77
2022/03/24 08:55:51;;;;;;;37.58;12.50;;;;;;;24.45;11.22;101124.38;5353870;32;34190;-69
2022/03/24 08:58:53;;;;;;;23.45;8.55;;;;;;;27.35;9.26;101112.94;5377915;32;34093;-70
2022/03/24 09:01:57;;;;;;;14.38;7.68;;;;;;;29.05;7.69;101104.59;5366533;32;33560;-71
2022/03/24 09:05:01;;;;;;;22.52;9.27;;;;;;;24.98;8.90;101123.38;5370492;32;34047;-75
2022/03/24 09:08:09;;;;;;;16.75;7.40;;;;;;;25.64;8.92;101118.37;5366014;32;44408;-76
2022/03/24 09:11:12;;;;;;;18.67;7.62;;;;;;;26.29;8.27;101124.94;5374307;32;34263;-78
2022/03/24 09:14:15;;;;;;;24.65;7.40;;;;;;;27.40;8.13;101109.81;5386910;32;37550;-84
2022/03/24 09:17:18;;;;;;;14.02;7.28;;;;;;;26.54;8.42;101114.56;5365521;32;36081;-69
2022/03/24 09:20:23;;;;;;;14.57;7.32;;;;;;;25.96;8.59;101114.59;5382755;32;36159;-79
2022/03/24 09:23:26;;;;;;;17.67;7.18;;;;;;;25.54;8.90;101114.81;5368727;32;35739;-70
2022/03/24 09:26:29;;;;;;;26.83;8.07;;;;;;;24.71;9.50;101119.44;5375707;32;35726;-70
2022/03/24 09:29:32;;;;;;;13.02;7.12;;;;;;;25.08;9.35;101113.56;5379118;32;34045;-71
2022/03/24 09:32:35;;;;;;;14.55;7.47;;;;;;;24.40;9.87;101115.00;5363294;32;44883;-70
2022/03/24 09:35:37;;;;;;;12.15;7.45;;;;;;;25.99;9.08;101112.47;5377977;32;34235;-68
2022/03/24 09:38:40;;;;;;;;;;;;;;;24.74;9.55;101119.19;5356104;32;34071;-69
2022/03/24 09:41:46;;;;;;;13.93;7.53;;;;;;;27.29;8.11;101102.75;5364602;32;34700;-70
2022/03/24 09:44:49;;;;;;;15.25;7.37;;;;;;;26.42;8.67;101119.25;5346646;32;34453;-67
2022/03/24 09:47:51;;;;;;;17.37;7.70;;;;;;;26.02;8.91;101119.41;5342824;32;34046;-69
2022/03/24 09:50:54;;;;;;;16.33;7.80;;;;;;;27.87;8.01;101107.78;5369224;32;35268;-68
2022/03/24 09:53:56;;;;;;;14.25;7.65;;;;;;;29.77;6.89;101107.72;5357780;32;35273;-75
2022/03/24 09:57:06;;;;;;;17.83;8.13;;;;;;;30.54;6.47;101107.38;5352761;32;35857;-73
2022/03/24 10:00:10;;;;;;;18.70;8.05;;;;;;;28.63;7.54;101106.38;5356424;32;45200;-71
2022/03/24 10:03:17;;;;;;;19.73;8.02;;;;;;;30.05;6.68;101108.22;5361760;32;33289;-68
2022/03/24 10:06:19;;;;;;;16.17;7.12;;;;;;;30.58;6.48;101104.13;5370495;32;34773;-65
2022/03/24 10:09:45;;;;;;;20.52;8.68;;;;;;;29.66;6.80;101094.47;5365722;32;34177;-68
2022/03/24 10:12:48;;;;;;;15.13;7.10;;;;;;;29.57;6.88;101096.34;5367413;32;34449;-66
2022/03/24 10:15:50;;;;;;;16.23;6.87;;;;;;;30.39;6.34;101102.63;5370870;32;34752;-66
2022/03/24 10:18:57;;;;;;;13.20;7.20;;;;;;;26.64;8.36;101109.97;5371641;32;34022;-70
2022/03/24 10:22:07;;;;;;;13.73;7.20;;;;;;;28.23;7.78;101099.66;5366218;32;34206;-68
2022/03/24 10:25:21;;;;;;;11.57;6.87;;;;;;;28.26;7.25;101099.31;5373995;32;47150;-64
2022/03/24 10:28:27;;;;;;;11.20;7.10;;;;;;;27.92;7.46;101094.66;5372196;32;35547;-67
2022/03/24 10:31:33;;;;;;;16.15;7.35;;;;;;;27.08;7.97;101099.47;5356748;32;33959;-69
2022/03/24 10:34:37;;;;;;;21.12;7.28;;;;;;;28.60;7.15;101094.03;5364029;32;45949;-68
2022/03/24 10:37:47;;;;;;;13.00;6.95;;;;;;;27.92;7.49;101097.38;5362688;32;34234;-68
2022/03/24 10:40:49;;;;;;;16.23;6.62;;;;;;;28.25;7.44;101089.53;5345874;32;34179;-66
2022/03/24 10:44:13;;;;;;;17.37;8.10;;;;;;;29.26;7.00;101073.56;5375308;32;34503;-66
2022/03/24 10:47:55;;;;;;;14.52;6.75;;;;;;;29.15;6.99;101071.97;5366758;32;33593;-65
2022/03/24 10:50:58;;;;;;;;;;;;;;;29.88;6.36;101076.72;5365907;32;34310;-66
2022/03/24 10:54:15;;;;;;;17.33;7.05;;;;;;;29.39;6.84;101079.34;5366061;32;34354;-68
2022/03/24 10:57:20;;;;;;;12.65;6.68;;;;;;;27.58;7.59;101074.75;5366894;32;34307;-67
2022/03/24 11:00:22;;;;;;;15.48;7.05;;;;;;;29.69;6.59;101069.78;5376886;32;35301;-67
2022/03/24 11:03:25;;;;;;;13.20;7.25;;;;;;;29.74;6.77;101071.97;5365564;32;35823;-70
2022/03/24 11:06:28;;;;;;;14.63;7.37;;;;;;;30.62;6.25;101061.25;5385181;32;33867;-70
2022/03/24 11:09:32;;;;;;;14.00;7.85;;;;;;;28.30;7.31;101071.00;5369345;32;35269;-69
2022/03/24 11:12:38;;;;;;;13.52;7.22;;;;;;;26.81;8.33;101065.22;5366910;32;44431;-68
2022/03/24 11:15:41;;;;;;;13.32;7.22;;;;;;;28.06;7.45;101063.53;5374069;32;34128;-67
2022/03/24 11:18:46;;;;;;;17.17;7.60;;;;;;;27.90;7.58;101056.16;5367452;32;34010;-72
2022/03/24 11:21:48;;;;;;;11.63;7.45;;;;;;;28.37;7.22;101055.84;5379791;32;34152;-69
2022/03/24 11:24:50;;;;;;;26.80;8.40;;;;;;;28.11;7.16;101049.56;5358875;32;34055;-68
2022/03/24 11:27:55;;;;;;;;;;;;;;;27.43;7.26;101058.22;5369866;32;34030;-67
2022/03/24 11:31:04;;;;;;;11.48;6.70;;;;;;;26.33;7.61;101045.47;5379067;32;33218;-69
2022/03/24 11:34:06;;;;;;;13.20;6.85;;;;;;;27.13;7.27;101051.31;5350387;32;46924;-70
2022/03/24 11:37:09;;;;;;;12.02;6.35;;;;;;;25.58;7.90;101044.41;5378843;32;35318;-70
2022/03/24 11:40:13;;;;;;;14.20;6.87;;;;;;;25.79;7.95;101051.53;5343055;32;34933;-72
2022/03/24 11:43:21;;;;;;;22.10;7.30;;;;;;;28.14;6.80;101033.03;5385954;32;34196;-69
2022/03/24 11:46:42;;;;;;;16.30;7.62;;;;;;;26.96;7.50;101034.91;5364965;32;34012;-67
2022/03/24 11:49:44;;;;;;;17.55;7.32;;;;;;;28.60;6.80;101016.47;5371169;32;34274;-67
2022/03/24 11:52:48;;;;;;;;;;;;;;;28.34;6.89;101018.34;5378799;32;35271;-65
2022/03/24 11:55:58;;;;;;;19.73;8.10;;;;;;;28.08;7.36;101026.44;5371336;32;35382;-64
2022/03/24 11:59:00;;;;;;;14.45;6.90;;;;;;;28.00;7.12;101021.78;5374235;32;34194;-67
2022/03/24 12:02:17;;;;;;;11.90;8.05;;;;;;;28.98;6.62;101011.56;5361826;32;35317;-69
2022/03/24 12:05:19;;;;;;;12.63;7.90;;;;;;;29.44;6.74;101013.88;5371968;32;34115;-68
2022/03/24 12:08:28;;;;;;;17.87;7.90;;;;;;;27.06;7.87;101009.75;5373712;32;33991;-69
2022/03/24 12:11:30;;;;;;;18.85;9.23;;;;;;;28.09;7.21;101008.34;5364565;32;35351;-72
2022/03/24 12:14:33;;;;;;;13.75;8.52;;;;;;;29.19;7.08;101000.28;5373348;32;34315;-72
2022/03/24 12:17:35;;;;;;;;;;;;;;;28.67;7.59;101003.13;5359172;32;44529;-69
2022/03/24 12:20:43;;;;;;;17.02;8.90;;;;;;;29.04;7.23;101008.19;5379194;32;34372;-68
2022/03/24 12:24:05;;;;;;;13.60;8.02;;;;;;;29.68;6.88;101001.19;5376729;32;35244;-69
2022/03/24 12:27:07;;;;;;;18.60;8.15;;;;;;;29.42;7.18;100992.34;5368224;32;47715;-68
2022/03/24 12:30:15;;;;;;;;;;;;;;;28.86;6.84;100996.63;5368564;32;35282;-68
2022/03/24 12:33:31;;;;;;;11.38;7.40;;;;;;;30.68;6.15;100990.03;5368242;32;34384;-67
2022/03/24 12:36:38;;;;;;;12.02;6.75;;;;;;;29.14;7.08;100989.94;5377858;32;35626;-67
2022/03/24 12:39:41;;;;;;;17.45;9.23;;;;;;;30.05;6.47;100994.38;5353115;32;45925;-68
2022/03/24 12:42:45;;;;;;;16.87;9.27;;;;;;;32.07;5.64;100981.75;5365618;32;36692;-66
2022/03/24 12:45:47;;;;;;;14.73;8.25;;;;;;;31.84;5.79;100970.09;5384210;32;33710;-70
2022/03/24 12:49:25;;;;;;;12.95;7.70;;;;;;;33.36;5.21;100972.97;5360835;32;44319;-71
2022/03/24 12:52:53;;;;;;;16.83;7.65;;;;;;;32.77;5.26;100983.16;5378757;32;33981;-64
2022/03/24 12:56:28;;;;;;;15.25;8.43;;;;;;;29.52;6.87;100993.06;5368824;32;34147;-69
2022/03/24 12:59:35;;;;;;;16.80;8.20;;;;;;;28.70;7.54;100969.50;5367884;32;34412;-69
2022/03/24 13:02:42;;;;;;;13.70;8.15;;;;;;;27.29;8.40;100966.97;5381641;32;44363;-69
2022/03/24 13:05:46;;;;;;;14.75;7.22;;;;;;;29.00;7.41;100971.66;5351759;32;34227;-69
2022/03/24 13:09:19;;;;;;;12.98;6.95;;;;;;;30.59;6.56;100966.63;5371531;32;35330;-72
2022/03/24 13:12:27;;;;;;;18.33;7.05;;;;;;;28.00;7.82;100956.09;5342051;32;35538;-68
2022/03/24 13:15:32;;;;;;;12.37;7.05;;;;;;;29.03;6.87;100954.22;5354618;32;35856;-69
2022/03/24 13:18:35;;;;;;;12.27;6.87;;;;;;;28.04;7.45;100963.72;5347786;32;44801;-68
2022/03/24 13:21:38;;;;;;;14.93;6.57;;;;;;;30.27;6.58;100952.19;5368344;32;34296;-69
2022/03/24 13:24:41;;;;;;;17.50;7.25;;;;;;;28.54;7.22;100959.47;5362423;32;199354;-67
2022/03/24 13:27:46;;;;;;;25.75;8.63;;;;;;;31.16;6.09;100948.19;5385523;32;34127;-67
2022/03/24 13:30:52;;;;;;;17.42;9.27;;;;;;;32.83;5.15;100934.25;5365062;32;33938;-66
2022/03/24 13:33:54;;;;;;;13.40;6.62;;;;;;;32.09;5.34;100936.22;5379400;32;35037;-67
2022/03/24 13:37:10;;;;;;;15.57;6.70;;;;;;;27.82;7.46;100952.59;5366924;32;34094;-67
2022/03/24 13:40:14;;;;;;;20.95;7.97;;;;;;;27.88;7.75;100950.09;5324882;32;44555;-67
2022/03/24 13:43:18;;;;;;;12.52;6.80;;;;;;;26.27;8.71;100937.44;5371684;32;35578;-65
2022/03/24 13:46:20;;;;;;;10.10;6.00;;;;;;;24.60;9.83;100942.13;5368461;32;34246;-71
2022/03/24 13:49:23;;;;;;;13.20;6.12;;;;;;;25.45;9.11;100940.75;5368801;32;34145;-72
2022/03/24 13:52:30;;;;;;;11.90;6.20;;;;;;;24.08;9.63;100933.28;5369459;32;34166;-67
2022/03/24 13:55:32;;;;;;;14.00;5.80;;;;;;;24.30;9.64;100930.44;5378617;32;34844;-67
2022/03/24 13:58:35;;;;;;;14.40;5.80;;;;;;;24.25;9.66;100923.75;5347511;32;43274;-66
2022/03/24 14:01:37;;;;;;;16.20;5.87;;;;;;;23.19;10.10;100930.12;5371967;32;35633;-65
2022/03/24 14:04:39;;;;;;;;;;;;;;;23.60;10.11;100919.56;5362593;32;35528;-67
2022/03/24 14:07:59;;;;;;;12.52;5.15;;;;;;;23.07;10.27;100922.25;5375621;32;34426;-69
2022/03/24 14:11:07;;;;;;;15.45;6.32;;;;;;;23.71;9.91;100915.00;5376279;32;34562;-68
2022/03/24 14:14:14;;;;;;;13.62;5.85;;;;;;;22.72;10.49;100925.97;5362619;32;44621;-65
2022/03/24 14:17:25;;;;;;;11.45;6.00;;;;;;;22.25;10.83;100909.22;5378345;32;35356;-68
2022/03/24 14:20:40;;;;;;;10.50;5.22;;;;;;;23.02;10.49;100897.66;5357393;32;34034;-67